Time;durP1;ratioP1;P1;durP2;ratioP2;P2;SDS_P1;SDS_P2;PMS_P1;PMS_P2;Temp;Humidity;BMP_temperature;BMP_pressure;BME280_temperature;BME280_humidity;BME280_pressure;Samples;Min_cycle;Max_cycle;Signal;HPM_P1;HPM_P2
2023/03/28 00:01:55;;;;;;;8.20;2.77;;;0.40;99.90;;;;;;5076728;28;20578;-47
2023/03/28 00:04:21;;;;;;;9.20;1.80;;;0.30;99.90;;;;;;5076705;28;20254;-47
2023/03/28 00:06:48;;;;;;;5.03;1.80;;;0.20;99.90;;;;;;5076616;28;20184;-46
2023/03/28 00:09:13;;;;;;;4.23;2.10;;;0.20;99.90;;;;;;5076509;28;20209;-47
2023/03/28 00:11:39;;;;;;;8.50;2.10;;;0.20;99.90;;;;;;5076744;28;20243;-46
2023/03/28 00:14:07;;;;;;;7.83;2.00;;;0.10;99.90;;;;;;5076826;28;20228;-45
2023/03/28 00:16:35;;;;;;;4.10;1.97;;;0.10;99.90;;;;;;5077518;28;20187;-47
2023/03/28 00:19:04;;;;;;;9.37;2.23;;;0.10;99.90;;;;;;5076673;28;20431;-46
2023/03/28 00:21:36;;;;;;;8.70;1.90;;;0.10;99.90;;;;;;5076262;28;21004;-47
2023/03/28 00:24:04;;;;;;;12.77;2.17;;;0.00;99.90;;;;;;5076480;28;20409;-47
2023/03/28 00:26:31;;;;;;;4.77;1.97;;;0.10;99.90;;;;;;5076526;28;20173;-45
2023/03/28 00:29:00;;;;;;;6.00;2.10;;;0.10;99.90;;;;;;5076421;28;21031;-46
2023/03/28 00:31:26;;;;;;;12.33;2.53;;;0.10;99.90;;;;;;5076342;28;20592;-46
2023/03/28 00:33:52;;;;;;;9.93;2.40;;;0.10;99.90;;;;;;5076412;28;20278;-47
2023/03/28 00:36:22;;;;;;;7.13;2.13;;;0.20;99.90;;;;;;5076405;28;20413;-49
2023/03/28 00:38:49;;;;;;;9.60;2.40;;;0.10;99.90;;;;;;5076537;28;20518;-46
2023/03/28 00:41:17;;;;;;;4.30;1.87;;;0.10;99.90;;;;;;5076396;28;20474;-48
2023/03/28 00:43:45;;;;;;;9.93;2.30;;;0.10;99.90;;;;;;5076130;28;20420;-47
2023/03/28 00:46:22;;;;;;;4.30;1.83;;;0.10;99.90;;;;;;5076308;28;20509;-46
2023/03/28 00:48:51;;;;;;;9.97;2.10;;;0.00;99.90;;;;;;5075832;28;20202;-46
2023/03/28 00:51:20;;;;;;;5.00;1.67;;;0.00;99.90;;;;;;5075830;28;20424;-46
2023/03/28 00:53:46;;;;;;;4.57;2.20;;;0.00;99.90;;;;;;5075817;28;20447;-47
2023/03/28 00:56:17;;;;;;;8.67;2.30;;;0.00;99.90;;;;;;5075917;28;20454;-47
2023/03/28 00:58:44;;;;;;;3.20;1.47;;;0.00;99.90;;;;;;5076039;28;20895;-46
2023/03/28 01:01:14;;;;;;;5.33;2.00;;;0.00;99.90;;;;;;5075547;28;20440;-45
2023/03/28 01:03:44;;;;;;;9.33;1.83;;;0.00;99.90;;;;;;5075813;28;20884;-46
2023/03/28 01:06:13;;;;;;;6.30;1.80;;;-0.10;99.90;;;;;;5075877;28;20405;-48
2023/03/28 01:08:41;;;;;;;7.40;2.20;;;-0.10;99.90;;;;;;5075412;28;20536;-46
2023/03/28 01:11:07;;;;;;;3.77;2.17;;;-0.10;99.90;;;;;;5075690;28;20813;-47
2023/03/28 01:13:37;;;;;;;3.93;1.80;;;-0.10;99.90;;;;;;5075470;28;20554;-45
2023/03/28 01:16:04;;;;;;;7.73;2.80;;;-0.10;99.90;;;;;;5075410;28;20408;-45
2023/03/28 01:18:33;;;;;;;7.70;1.80;;;-0.10;99.90;;;;;;5075545;28;20530;-45
2023/03/28 01:21:07;;;;;;;5.67;1.90;;;-0.10;99.90;;;;;;5075481;28;20444;-46
2023/03/28 01:23:42;;;;;;;5.90;2.27;;;-0.10;99.90;;;;;;5075519;28;20503;-47
2023/03/28 01:26:37;;;;;;;5.97;2.30;;;-0.10;99.90;;;;;;5075421;28;20394;-47
2023/03/28 01:29:31;;;;;;;5.23;2.10;;;-0.20;99.90;;;;;;5075073;28;20430;-45
2023/03/28 01:32:24;;;;;;;4.73;2.30;;;-0.20;99.90;;;;;;5074997;28;20426;-46
2023/03/28 01:34:49;;;;;;;5.13;2.17;;;-0.20;99.90;;;;;;5057084;28;20408;-46
2023/03/28 01:37:57;;;;;;;5.97;1.83;;;-0.20;99.90;;;;;;5075267;28;20407;-46
2023/03/28 01:40:32;;;;;;;8.53;2.07;;;-0.30;99.90;;;;;;5054245;28;20189;-46
2023/03/28 01:43:21;;;;;;;4.60;1.80;;;-0.40;99.90;;;;;;5075140;28;20913;-46
2023/03/28 01:45:58;;;;;;;7.03;2.10;;;-0.50;99.90;;;;;;5074905;28;20392;-47
2023/03/28 01:48:51;;;;;;;3.20;2.10;;;-0.50;99.90;;;;;;5056868;28;20961;-47
2023/03/28 01:51:41;;;;;;;4.07;1.53;;;-0.60;99.90;;;;;;5074577;28;20436;-47
2023/03/28 01:54:15;;;;;;;3.73;2.00;;;-0.60;99.90;;;;;;5074645;28;20389;-48
2023/03/28 01:56:55;;;;;;;8.13;2.10;;;-0.70;99.90;;;;;;5074736;28;20424;-47
2023/03/28 01:59:28;;;;;;;5.60;2.23;;;-0.70;99.90;;;;;;5073932;28;20411;-47
2023/03/28 02:02:02;;;;;;;6.83;2.27;;;-0.70;99.90;;;;;;5075051;28;20429;-46
2023/03/28 02:04:29;;;;;;;2.97;1.80;;;-0.70;99.90;;;;;;5074710;28;20398;-48
2023/03/28 02:06:57;;;;;;;3.97;2.00;;;-0.70;99.90;;;;;;5074584;28;20460;-47
2023/03/28 02:09:25;;;;;;;3.33;2.03;;;-0.70;99.90;;;;;;5074579;28;20467;-47
2023/03/28 02:12:00;;;;;;;5.73;2.10;;;-0.80;99.90;;;;;;5074628;28;20437;-48
2023/03/28 02:14:29;;;;;;;4.13;1.87;;;-0.80;99.90;;;;;;5074910;28;20475;-47
2023/03/28 02:17:03;;;;;;;4.30;2.27;;;-0.80;99.90;;;;;;5074163;28;20399;-45
2023/03/28 02:19:30;;;;;;;7.70;2.20;;;-0.90;99.90;;;;;;5074474;28;20398;-45
2023/03/28 02:22:23;;;;;;;5.93;2.50;;;-0.90;99.90;;;;;;5074274;28;20439;-48
2023/03/28 02:24:50;;;;;;;5.27;2.50;;;-0.90;99.90;;;;;;5074311;28;20440;-48
2023/03/28 02:27:16;;;;;;;9.60;2.07;;;-0.90;99.90;;;;;;5074440;28;20414;-49
2023/03/28 02:29:42;;;;;;;9.23;2.67;;;-0.90;99.90;;;;;;5073903;28;20423;-47
2023/03/28 02:32:08;;;;;;;5.87;2.33;;;-1.00;99.90;;;;;;5073906;28;20442;-49
2023/03/28 02:34:34;;;;;;;9.70;2.60;;;-1.00;99.90;;;;;;5074114;28;20182;-48
2023/03/28 02:37:24;;;;;;;7.73;2.50;;;-1.00;99.90;;;;;;5074109;28;20219;-46
2023/03/28 02:40:06;;;;;;;6.43;2.83;;;-1.00;99.90;;;;;;5074367;28;20393;-47
2023/03/28 02:42:48;;;;;;;5.93;2.80;;;-1.00;99.90;;;;;;5073728;28;20422;-46
2023/03/28 02:45:51;;;;;;;9.60;2.83;;;-0.90;99.90;;;;;;5074042;28;20391;-46
2023/03/28 02:48:46;;;;;;;7.70;2.83;;;-0.90;99.90;;;;;;5064290;28;20860;-45
2023/03/28 02:51:28;;;;;;;7.10;2.70;;;-0.90;99.90;;;;;;5073531;28;20445;-44
2023/03/28 02:54:13;;;;;;;6.30;2.77;;;-0.80;99.90;;;;;;5073875;28;20421;-46
2023/03/28 02:56:55;;;;;;;10.33;2.73;;;-0.80;99.90;;;;;;5073624;28;20438;-49
2023/03/28 02:59:32;;;;;;;8.80;3.30;;;-0.80;99.90;;;;;;5073874;28;20471;-46
2023/03/28 03:01:59;;;;;;;7.77;3.00;;;-0.80;99.90;;;;;;5073669;28;20448;-47
2023/03/28 03:04:25;;;;;;;9.77;2.50;;;-0.80;99.90;;;;;;5073555;28;20420;-46
2023/03/28 03:06:51;;;;;;;6.63;3.03;;;-0.80;99.90;;;;;;5073763;28;20493;-46
2023/03/28 03:09:17;;;;;;;10.07;3.27;;;-0.80;99.90;;;;;;5073615;28;20208;-48
2023/03/28 03:11:43;;;;;;;10.43;2.80;;;-0.90;99.90;;;;;;5073578;28;20199;-47
2023/03/28 03:14:08;;;;;;;9.63;3.40;;;-0.90;99.90;;;;;;5073641;28;20501;-45
2023/03/28 03:16:37;;;;;;;10.07;2.77;;;-0.90;99.90;;;;;;5073411;28;20171;-48
2023/03/28 03:19:03;;;;;;;8.10;2.73;;;-0.90;99.90;;;;;;5073299;28;20242;-48
2023/03/28 03:21:28;;;;;;;8.43;3.40;;;-0.90;99.90;;;;;;5073232;28;20454;-47
2023/03/28 03:23:54;;;;;;;8.27;2.90;;;-0.90;99.90;;;;;;5073252;28;20179;-47
2023/03/28 03:26:20;;;;;;;14.83;3.77;;;-0.90;99.90;;;;;;5073792;28;20221;-47
2023/03/28 03:28:45;;;;;;;6.83;2.90;;;-0.80;99.90;;;;;;5073201;28;20199;-48
2023/03/28 03:31:11;;;;;;;6.27;3.27;;;-0.80;99.90;;;;;;5073159;28;20196;-46
2023/03/28 03:33:36;;;;;;;9.77;3.00;;;-0.80;99.90;;;;;;5073299;28;20194;-47
2023/03/28 03:36:03;;;;;;;5.10;3.00;;;-0.80;99.90;;;;;;5073217;28;20175;-47
2023/03/28 03:38:29;;;;;;;12.53;3.50;;;-0.80;99.90;;;;;;5073206;28;20531;-46
2023/03/28 03:40:55;;;;;;;10.93;2.97;;;-0.90;99.90;;;;;;5073113;28;20433;-46
2023/03/28 03:43:20;;;;;;;9.23;3.07;;;-0.90;99.90;;;;;;5073173;28;20246;-48
2023/03/28 03:45:46;;;;;;;7.87;3.00;;;-1.00;99.90;;;;;;5055221;28;20175;-47
2023/03/28 03:48:12;;;;;;;4.97;2.40;;;-1.00;99.90;;;;;;5073349;28;20208;-48
2023/03/28 03:50:37;;;;;;;13.57;3.63;;;-1.10;99.90;;;;;;5073286;28;20690;-46
2023/03/28 03:53:03;;;;;;;8.17;3.00;;;-1.10;99.90;;;;;;5073242;28;20175;-48
2023/03/28 03:55:29;;;;;;;5.10;2.87;;;-1.20;99.90;;;;;;5073138;28;20183;-47
2023/03/28 03:57:54;;;;;;;8.20;2.90;;;-1.20;99.90;;;;;;5072878;28;20195;-46
2023/03/28 04:00:20;;;;;;;7.63;2.73;;;-1.30;99.90;;;;;;5089368;22;20368;-48
2023/03/28 04:02:46;;;;;;;11.23;3.07;;;-1.30;99.90;;;;;;5093538;28;20181;-50
2023/03/28 04:05:12;;;;;;;6.57;3.03;;;-1.30;99.90;;;;;;5093203;28;20534;-49
2023/03/28 04:07:38;;;;;;;7.87;2.70;;;-1.40;99.90;;;;;;5092103;28;20468;-49
2023/03/28 04:10:04;;;;;;;7.00;2.90;;;-1.40;99.90;;;;;;5093349;28;20171;-48
2023/03/28 04:12:30;;;;;;;7.73;3.17;;;-1.40;99.90;;;;;;5093001;28;20191;-48
2023/03/28 04:14:56;;;;;;;6.10;3.07;;;-1.50;99.90;;;;;;5093396;28;20405;-48
2023/03/28 04:17:22;;;;;;;6.43;3.00;;;-1.50;99.90;;;;;;5093451;28;20221;-48
2023/03/28 04:19:48;;;;;;;5.93;3.23;;;-1.50;99.90;;;;;;5093082;28;20669;-48
2023/03/28 04:22:17;;;;;;;6.83;2.93;;;-1.50;99.90;;;;;;5094343;28;20427;-49
2023/03/28 04:24:43;;;;;;;5.97;3.30;;;-1.60;99.90;;;;;;5097009;28;20413;-48
2023/03/28 04:27:09;;;;;;;7.40;3.00;;;-1.60;99.90;;;;;;5096975;28;20440;-49
2023/03/28 04:29:35;;;;;;;5.10;3.13;;;-1.70;99.90;;;;;;5096911;28;20413;-48
2023/03/28 04:32:04;;;;;;;6.60;3.40;;;-1.70;99.90;;;;;;5096645;28;20456;-48
2023/03/28 04:34:30;;;;;;;12.17;3.20;;;-1.70;99.90;;;;;;5096449;28;20922;-48
2023/03/28 04:37:00;;;;;;;7.63;3.00;;;-1.80;99.90;;;;;;5096534;28;20820;-51
2023/03/28 04:39:27;;;;;;;6.43;2.70;;;-1.80;99.90;;;;;;5096621;28;20401;-48
2023/03/28 04:41:54;;;;;;;11.63;3.30;;;-1.80;99.90;;;;;;5096336;28;20508;-49
2023/03/28 04:44:20;;;;;;;8.40;3.10;;;-1.90;99.90;;;;;;5096253;28;20409;-48
2023/03/28 04:46:47;;;;;;;10.43;3.50;;;-1.90;99.90;;;;;;5096339;28;20444;-49
2023/03/28 04:49:13;;;;;;;8.10;2.80;;;-1.90;99.90;;;;;;5096125;28;20459;-50
2023/03/28 04:51:39;;;;;;;6.47;2.70;;;-1.90;99.90;;;;;;5094809;28;20437;-49
2023/03/28 04:54:04;;;;;;;4.70;2.93;;;-2.00;99.90;;;;;;5095675;28;20175;-48
2023/03/28 04:56:30;;;;;;;7.73;3.07;;;-2.00;99.90;;;;;;5096114;28;20175;-50
2023/03/28 04:58:56;;;;;;;6.17;2.73;;;-2.00;99.90;;;;;;5096053;28;20183;-49
2023/03/28 05:01:24;;;;;;;3.97;3.00;;;-2.10;99.90;;;;;;5096489;28;20731;-50
2023/03/28 05:03:50;;;;;;;6.57;3.03;;;-2.10;99.90;;;;;;5095954;28;20538;-51
2023/03/28 05:06:16;;;;;;;9.07;3.17;;;-2.20;99.90;;;;;;5096147;28;20417;-49
2023/03/28 05:08:42;;;;;;;7.03;3.10;;;-2.20;99.90;;;;;;5095795;28;20195;-49
2023/03/28 05:11:08;;;;;;;5.23;2.90;;;-2.20;99.90;;;;;;5096021;28;20494;-49
2023/03/28 05:13:34;;;;;;;8.63;3.53;;;-2.20;99.90;;;;;;5096137;28;20216;-49
2023/03/28 05:15:59;;;;;;;8.00;3.73;;;-2.20;99.90;;;;;;5095953;28;20583;-50
2023/03/28 05:18:25;;;;;;;8.00;3.30;;;-2.20;99.90;;;;;;5095836;28;20245;-49
2023/03/28 05:20:51;;;;;;;7.23;3.03;;;-2.20;99.90;;;;;;5095850;28;20243;-50
2023/03/28 05:23:16;;;;;;;5.20;2.83;;;-2.30;99.90;;;;;;5095835;28;20182;-50
2023/03/28 05:25:42;;;;;;;6.50;3.70;;;-2.30;99.90;;;;;;5095565;28;20175;-48
2023/03/28 05:28:08;;;;;;;7.63;3.53;;;-2.30;99.90;;;;;;5095723;28;20210;-48
2023/03/28 05:30:34;;;;;;;8.73;3.27;;;-2.40;99.90;;;;;;5095895;28;20174;-45
2023/03/28 05:33:00;;;;;;;5.27;3.07;;;-2.40;99.90;;;;;;5095246;28;20657;-47
2023/03/28 05:35:25;;;;;;;8.30;3.00;;;-2.40;99.90;;;;;;5095393;28;20190;-45
2023/03/28 05:37:51;;;;;;;13.60;3.40;;;-2.40;99.90;;;;;;5095560;28;20893;-46
2023/03/28 05:40:17;;;;;;;5.47;3.43;;;-2.40;99.90;;;;;;5096250;28;20174;-48
2023/03/28 05:42:43;;;;;;;7.20;3.67;;;-2.40;99.90;;;;;;5097338;28;20182;-44
2023/03/28 05:45:11;;;;;;;8.23;3.40;;;-2.30;99.90;;;;;;5095169;28;20918;-44
2023/03/28 05:47:36;;;;;;;7.37;3.87;;;-2.30;99.90;;;;;;5095381;28;20204;-45
2023/03/28 05:50:03;;;;;;;9.23;3.47;;;-2.30;99.90;;;;;;5095086;28;20405;-46
2023/03/28 05:52:29;;;;;;;6.70;3.50;;;-2.30;99.90;;;;;;5094894;28;20191;-45
2023/03/28 05:54:55;;;;;;;9.90;3.80;;;-2.30;99.90;;;;;;5095213;28;20922;-46
2023/03/28 05:57:21;;;;;;;7.70;3.63;;;-2.30;99.90;;;;;;5094922;28;20248;-45
2023/03/28 05:59:47;;;;;;;10.03;4.37;;;-2.30;99.90;;;;;;5094874;28;20178;-45
2023/03/28 06:02:15;;;;;;;6.73;3.70;;;-2.30;99.90;;;;;;5094835;28;20494;-45
2023/03/28 06:04:41;;;;;;;10.20;4.13;;;-2.20;99.90;;;;;;5094821;28;20405;-45
2023/03/28 06:07:07;;;;;;;12.67;4.23;;;-2.20;99.90;;;;;;5094792;28;20405;-46
2023/03/28 06:09:34;;;;;;;11.63;4.27;;;-2.20;99.90;;;;;;5094700;28;20178;-45
2023/03/28 06:12:00;;;;;;;11.03;4.30;;;-2.10;99.90;;;;;;5094495;28;20494;-45
2023/03/28 06:14:26;;;;;;;7.70;4.00;;;-2.00;99.90;;;;;;5094831;28;20807;-43
2023/03/28 06:16:51;;;;;;;8.87;3.67;;;-2.00;99.90;;;;;;5094743;28;20420;-43
2023/03/28 06:19:17;;;;;;;6.97;3.63;;;-1.90;99.90;;;;;;5094805;28;20409;-46
2023/03/28 06:21:43;;;;;;;12.97;3.90;;;-1.80;99.90;;;;;;5094519;28;20195;-44
2023/03/28 06:24:10;;;;;;;11.00;3.43;;;-1.70;99.90;;;;;;5094743;28;20163;-45
2023/03/28 06:26:35;;;;;;;7.43;3.47;;;-1.60;99.90;;;;;;5094454;28;20570;-46
2023/03/28 06:29:01;;;;;;;8.17;3.70;;;-1.40;99.90;;;;;;5094587;28;20457;-45
2023/03/28 06:31:27;;;;;;;12.00;4.53;;;-1.20;99.90;;;;;;5094575;28;20199;-45
2023/03/28 06:33:52;;;;;;;7.90;3.87;;;-0.90;99.90;;;;;;5094228;28;20185;-44
2023/03/28 06:36:18;;;;;;;13.90;4.17;;;-0.70;99.90;;;;;;5094078;28;20190;-45
2023/03/28 06:38:45;;;;;;;9.33;4.40;;;-0.50;99.90;;;;;;5094797;28;20228;-44
2023/03/28 06:41:11;;;;;;;15.27;4.80;;;-0.30;99.90;;;;;;5094168;28;20191;-44
2023/03/28 06:43:37;;;;;;;11.47;4.53;;;-0.10;99.90;;;;;;5094038;28;20780;-46
2023/03/28 06:46:03;;;;;;;12.33;4.23;;;0.20;99.90;;;;;;5093765;28;20418;-45
2023/03/28 06:48:30;;;;;;;10.80;5.00;;;0.40;99.90;;;;;;5093859;28;20209;-45
2023/03/28 06:50:57;;;;;;;8.30;4.03;;;0.60;99.90;;;;;;5094152;28;20563;-45
2023/03/28 06:53:23;;;;;;;13.77;5.93;;;0.80;99.90;;;;;;5094199;28;20409;-47
2023/03/28 06:55:50;;;;;;;17.07;5.23;;;1.10;99.90;;;;;;5093951;28;20423;-47
2023/03/28 06:58:16;;;;;;;14.77;5.70;;;1.30;99.90;;;;;;5094350;28;20197;-46
2023/03/28 07:00:41;;;;;;;13.40;5.53;;;1.50;99.90;;;;;;5093743;28;20476;-47
2023/03/28 07:03:07;;;;;;;13.33;5.57;;;1.70;99.90;;;;;;5094151;28;20409;-46
2023/03/28 07:05:40;;;;;;;16.13;5.20;;;2.00;99.90;;;;;;5093889;28;20178;-44
2023/03/28 07:08:10;;;;;;;13.67;4.83;;;2.20;99.90;;;;;;5094556;28;20202;-47
2023/03/28 07:10:37;;;;;;;14.17;5.10;;;2.40;99.90;;;;;;5093600;28;20447;-45
2023/03/28 07:13:03;;;;;;;13.40;5.13;;;2.50;99.90;;;;;;5093660;28;20406;-45
2023/03/28 07:15:29;;;;;;;14.17;5.43;;;2.70;99.90;;;;;;5093764;28;20417;-48
2023/03/28 07:17:55;;;;;;;16.30;4.97;;;2.90;99.90;;;;;;5093819;28;20762;-46
2023/03/28 07:20:22;;;;;;;16.00;5.50;;;3.00;99.90;;;;;;5093800;28;20649;-46
2023/03/28 07:22:47;;;;;;;18.47;5.17;;;3.00;99.90;;;;;;5094158;28;20444;-46
2023/03/28 07:25:13;;;;;;;16.00;4.77;;;3.10;99.90;;;;;;5093847;28;20406;-46
2023/03/28 07:27:38;;;;;;;14.97;5.67;;;3.20;99.90;;;;;;5093641;28;20227;-45
2023/03/28 07:30:05;;;;;;;13.13;5.07;;;3.20;99.90;;;;;;5093760;28;20224;-45
2023/03/28 07:32:31;;;;;;;8.80;4.33;;;3.30;99.90;;;;;;5093400;28;20281;-47
2023/03/28 07:34:57;;;;;;;14.53;4.77;;;3.50;99.90;;;;;;5093805;28;20443;-48
2023/03/28 07:37:23;;;;;;;16.90;5.00;;;3.60;99.90;;;;;;5093434;28;20223;-45
2023/03/28 07:39:48;;;;;;;9.17;3.87;;;3.80;99.90;;;;;;5093479;28;20597;-47
2023/03/28 07:42:14;;;;;;;12.83;4.37;;;3.90;99.90;;;;;;5093396;28;20197;-46
2023/03/28 07:44:40;;;;;;;7.93;3.93;;;4.10;99.90;;;;;;5094035;28;20178;-48
2023/03/28 07:47:07;;;;;;;10.80;4.27;;;4.30;99.90;;;;;;5094986;28;20175;-46
2023/03/28 07:49:32;;;;;;;13.53;4.20;;;4.40;99.90;;;;;;5093852;28;20205;-47
2023/03/28 07:51:59;;;;;;;15.60;4.17;;;4.60;99.90;;;;;;5093328;28;20787;-45
2023/03/28 07:54:25;;;;;;;13.53;3.87;;;4.80;99.90;;;;;;5093269;28;20546;-47
2023/03/28 07:56:51;;;;;;;11.40;4.03;;;4.80;99.90;;;;;;5094305;28;20175;-46
2023/03/28 07:59:16;;;;;;;8.93;3.70;;;5.00;99.90;;;;;;5097806;28;20178;-47
2023/03/28 08:01:44;;;;;;;7.33;3.37;;;5.00;99.90;;;;;;5097627;28;20298;-45
2023/03/28 08:04:11;;;;;;;13.13;3.77;;;5.20;99.90;;;;;;5098043;28;20182;-48
2023/03/28 08:06:38;;;;;;;9.50;3.30;;;5.30;99.90;;;;;;5097522;28;20189;-48
2023/03/28 08:09:08;;;;;;;12.07;3.37;;;5.50;99.90;;;;;;5097315;28;20198;-46
2023/03/28 08:11:35;;;;;;;9.30;3.43;;;5.70;99.90;;;;;;5096915;28;20191;-47
2023/03/28 08:14:01;;;;;;;7.00;2.77;;;5.80;99.90;;;;;;5096851;28;20187;-45
2023/03/28 08:16:28;;;;;;;7.63;2.80;;;5.90;99.90;;;;;;5096892;28;20772;-46
2023/03/28 08:18:54;;;;;;;8.23;2.97;;;6.00;99.90;;;;;;5097086;28;20175;-46
2023/03/28 08:21:20;;;;;;;6.30;2.30;;;6.10;99.90;;;;;;5097208;28;20573;-45
2023/03/28 08:23:46;;;;;;;11.63;2.57;;;6.10;99.90;;;;;;5097853;28;20171;-47
2023/03/28 08:26:11;;;;;;;11.73;3.17;;;6.10;99.90;;;;;;5096811;28;20183;-47
2023/03/28 08:28:37;;;;;;;7.57;2.70;;;6.20;99.90;;;;;;5096888;28;20241;-46
2023/03/28 08:31:08;;;;;;;8.53;2.57;;;6.30;99.90;;;;;;5096656;28;20245;-47
2023/03/28 08:33:34;;;;;;;7.43;2.30;;;6.50;99.90;;;;;;5096580;28;20571;-48
2023/03/28 08:36:00;;;;;;;6.17;2.90;;;6.60;99.90;;;;;;5096811;28;20230;-46
2023/03/28 08:38:26;;;;;;;6.23;2.23;;;6.80;99.90;;;;;;5096466;28;20183;-47
2023/03/28 08:41:10;;;;;;;5.27;2.77;;;6.90;99.90;;;;;;5097198;28;20663;-48
2023/03/28 08:44:17;;;;;;;10.07;3.23;;;7.00;99.90;;;;;;5096707;28;20172;-46
2023/03/28 08:46:45;;;;;;;9.63;2.70;;;7.00;99.90;;;;;;5096283;28;20176;-48
2023/03/28 08:49:15;;;;;;;9.00;2.60;;;7.10;99.90;;;;;;5096666;28;20542;-47
2023/03/28 08:52:04;;;;;;;9.40;2.53;;;7.20;99.90;;;;;;5106631;28;20212;-47
2023/03/28 08:54:40;;;;;;;8.47;2.30;;;7.30;99.90;;;;;;5103930;28;20182;-50
2023/03/28 08:57:15;;;;;;;5.40;2.10;;;7.40;99.90;;;;;;5096345;28;20273;-51
2023/03/28 08:59:53;;;;;;;10.77;2.40;;;7.60;99.90;;;;;;5096259;28;20219;-53
2023/03/28 09:02:21;;;;;;;4.30;1.93;;;7.80;99.90;;;;;;5095968;28;20290;-52
2023/03/28 09:04:47;;;;;;;6.27;2.33;;;7.90;99.90;;;;;;5096176;28;20183;-53
2023/03/28 09:07:31;;;;;;;10.97;2.13;;;8.00;99.90;;;;;;5096118;28;20187;-50
2023/03/28 09:10:25;;;;;;;9.33;2.00;;;8.10;99.90;;;;;;5095866;28;20165;-50
2023/03/28 09:20:11;;;;;;;8.57;1.90;;;8.40;99.90;;;;;;5469954;22;20243;-49
2023/03/28 09:22:54;;;;;;;3.97;1.43;;;8.60;99.90;;;;;;5097094;28;20217;-47
2023/03/28 09:25:31;;;;;;;4.80;1.83;;;8.70;99.90;;;;;;5095842;28;20296;-46
2023/03/28 09:28:30;;;;;;;8.03;1.80;;;8.90;99.90;;;;;;5095701;28;20282;-48
2023/03/28 09:30:58;;;;;;;5.30;1.50;;;8.90;99.90;;;;;;5093316;28;20212;-48
2023/03/28 09:33:37;;;;;;;2.43;1.40;;;9.00;99.90;;;;;;5095371;28;20175;-48
2023/03/28 09:36:14;;;;;;;6.33;1.40;;;9.10;99.90;;;;;;5095535;28;20163;-48
2023/03/28 09:38:52;;;;;;;4.57;1.50;;;9.10;99.90;;;;;;5095158;28;20703;-48
2023/03/28 09:41:28;;;;;;;6.40;1.73;;;9.20;99.90;;;;;;5095512;28;20556;-47
2023/03/28 09:43:59;;;;;;;4.80;1.40;;;9.20;99.90;;;;;;5095528;28;20169;-47
2023/03/28 09:46:45;;;;;;;3.37;1.30;;;9.30;99.90;;;;;;5095151;28;20679;-47
2023/03/28 09:49:19;;;;;;;5.13;1.40;;;9.30;99.90;;;;;;5094993;28;20677;-48
2023/03/28 09:51:46;;;;;;;4.57;1.73;;;9.30;99.90;;;;;;5095220;28;20203;-45
2023/03/28 09:54:12;;;;;;;4.23;1.30;;;9.50;99.90;;;;;;5094924;28;20178;-48
2023/03/28 09:56:42;;;;;;;2.63;0.80;;;9.50;99.90;;;;;;5095604;28;20227;-48
2023/03/28 09:59:32;;;;;;;1.93;0.63;;;9.50;99.90;;;;;;5094881;28;20169;-48
2023/03/28 10:01:59;;;;;;;3.90;1.00;;;9.50;99.90;;;;;;5099467;22;20320;-48
2023/03/28 10:04:28;;;;;;;2.77;1.00;;;9.50;99.90;;;;;;5074762;28;20183;-49
2023/03/28 10:06:56;;;;;;;4.67;1.33;;;9.50;99.90;;;;;;5074426;28;20171;-48
2023/03/28 10:09:24;;;;;;;2.50;0.90;;;9.50;99.90;;;;;;5074570;28;20570;-46
2023/03/28 10:11:56;;;;;;;4.13;1.07;;;9.50;99.90;;;;;;5074374;28;20218;-49
2023/03/28 10:14:30;;;;;;;3.80;1.30;;;9.50;99.90;;;;;;5074344;28;20210;-45
2023/03/28 10:17:02;;;;;;;5.73;1.30;;;9.60;99.90;;;;;;5074524;28;20175;-46
2023/03/28 10:19:32;;;;;;;5.00;1.13;;;9.70;99.90;;;;;;5073995;28;20183;-47
2023/03/28 10:22:04;;;;;;;3.33;0.97;;;9.80;99.90;;;;;;5074381;28;20214;-47
2023/03/28 10:24:31;;;;;;;4.00;1.20;;;9.90;99.90;;;;;;5074273;28;20160;-47
2023/03/28 10:27:15;;;;;;;4.20;0.90;;;9.90;99.90;;;;;;5074025;28;20168;-47
2023/03/28 10:29:41;;;;;;;3.67;1.00;;;10.00;99.90;;;;;;5074243;28;20202;-47
2023/03/28 10:32:11;;;;;;;2.73;1.00;;;10.20;99.90;;;;;;5073802;28;20690;-49
2023/03/28 10:34:37;;;;;;;2.83;1.00;;;10.20;99.90;;;;;;5074241;28;20164;-47
2023/03/28 10:37:20;;;;;;;2.23;1.03;;;10.30;99.90;;;;;;5074187;28;20178;-49
2023/03/28 10:39:57;;;;;;;2.10;0.90;;;10.30;99.90;;;;;;5074180;28;20164;-49
2023/03/28 10:42:23;;;;;;;3.40;0.80;;;10.40;99.90;;;;;;5074021;28;20195;-48
2023/03/28 10:44:58;;;;;;;2.23;0.87;;;10.40;99.90;;;;;;5073848;28;20174;-46
2023/03/28 10:47:24;;;;;;;2.63;1.67;;;10.50;99.90;;;;;;5073914;28;20582;-47
2023/03/28 10:49:54;;;;;;;6.97;1.07;;;10.50;99.90;;;;;;5073923;28;20270;-49
2023/03/28 10:52:36;;;;;;;5.53;1.20;;;10.60;99.90;;;;;;5073584;28;20188;-48
2023/03/28 10:55:08;;;;;;;3.50;1.27;;;10.60;99.90;;;;;;5073680;28;20213;-49
2023/03/28 10:57:44;;;;;;;4.80;1.33;;;10.60;99.90;;;;;;5073603;28;20688;-47
2023/03/28 11:00:22;;;;;;;4.07;1.43;;;10.70;99.90;;;;;;5074190;28;20163;-48
2023/03/28 11:03:12;;;;;;;4.23;1.23;;;10.80;99.90;;;;;;5073535;28;20187;-49
2023/03/28 11:06:31;;;;;;;4.20;1.30;;;10.80;99.90;;;;;;5051903;28;20187;-49
2023/03/28 11:09:23;;;;;;;3.80;1.20;;;10.80;99.90;;;;;;5012079;28;20220;-47
2023/03/28 11:12:10;;;;;;;4.50;1.20;;;10.90;99.90;;;;;;5011662;28;20546;-49
2023/03/28 11:14:59;;;;;;;2.20;1.30;;;11.00;99.90;;;;;;5067482;28;20237;-48
2023/03/28 11:17:46;;;;;;;3.10;1.23;;;11.00;99.90;;;;;;5073650;28;20176;-47
2023/03/28 11:20:38;;;;;;;6.37;1.30;;;11.00;99.90;;;;;;5073898;28;20301;-49
2023/03/28 11:23:38;;;;;;;8.17;1.73;;;11.00;99.90;;;;;;5073610;28;20164;-48
2023/03/28 11:26:09;;;;;;;4.33;1.30;;;11.00;99.90;;;;;;5073292;28;20198;-48
2023/03/28 11:28:58;;;;;;;4.70;1.17;;;11.10;99.90;;;;;;5073073;28;20711;-50
2023/03/28 11:31:32;;;;;;;3.90;1.20;;;11.20;99.90;;;;;;5074199;28;20196;-49
2023/03/28 11:34:10;;;;;;;4.00;1.10;;;11.40;99.90;;;;;;5077816;28;20171;-49
2023/03/28 11:36:58;;;;;;;3.70;1.30;;;11.40;99.90;;;;;;5077801;28;20602;-48
2023/03/28 11:39:41;;;;;;;2.50;1.10;;;11.50;99.90;;;;;;5077763;28;20178;-50
2023/03/28 11:42:12;;;;;;;9.00;0.93;;;11.60;99.90;;;;;;5077520;28;20681;-49
2023/03/28 11:44:56;;;;;;;3.23;1.10;;;11.60;99.90;;;;;;5077623;28;20221;-47
2023/03/28 11:47:31;;;;;;;2.73;1.10;;;11.70;99.90;;;;;;5077579;28;20163;-47
2023/03/28 11:50:21;;;;;;;3.10;1.30;;;11.70;99.90;;;;;;5077423;28;20170;-47
2023/03/28 11:52:52;;;;;;;2.87;0.93;;;11.80;99.90;;;;;;5077199;28;20650;-48
2023/03/28 11:55:29;;;;;;;4.00;1.20;;;11.80;99.90;;;;;;5077546;28;20160;-49
2023/03/28 11:58:03;;;;;;;5.37;1.20;;;11.80;99.90;;;;;;5077342;28;20586;-48
2023/03/28 12:00:35;;;;;;;3.43;1.03;;;11.90;99.90;;;;;;5076866;28;20159;-47
2023/03/28 12:03:53;;;;;;;2.67;1.20;;;11.90;99.90;;;;;;5076923;28;20226;-49
2023/03/28 12:06:41;;;;;;;2.83;1.37;;;11.90;99.90;;;;;;5051319;28;20191;-49
2023/03/28 12:09:12;;;;;;;3.57;1.03;;;11.90;99.90;;;;;;5077256;28;20268;-48
2023/03/28 12:11:54;;;;;;;4.63;1.50;;;12.00;99.90;;;;;;5076863;28;20198;-47
2023/03/28 12:14:44;;;;;;;4.13;1.63;;;12.00;99.90;;;;;;5077070;28;20190;-47
2023/03/28 12:17:22;;;;;;;3.27;1.10;;;12.00;99.90;;;;;;5076632;28;20239;-47
2023/03/28 12:19:48;;;;;;;6.03;1.33;;;12.20;99.90;;;;;;5076585;28;20210;-48
2023/03/28 12:22:33;;;;;;;4.07;1.20;;;12.30;99.90;;;;;;5076487;28;20199;-49
2023/03/28 12:25:12;;;;;;;2.80;0.93;;;12.40;99.90;;;;;;5076752;28;20164;-48
2023/03/28 12:27:49;;;;;;;5.47;1.70;;;12.40;99.90;;;;;;5076418;28;20670;-48
2023/03/28 12:30:37;;;;;;;1.40;1.00;;;12.50;99.90;;;;;;5077067;28;20600;-48
2023/03/28 12:33:15;;;;;;;3.30;1.30;;;12.60;99.90;;;;;;5076853;28;20558;-50
2023/03/28 12:35:54;;;;;;;2.40;1.17;;;12.80;99.90;;;;;;5076183;28;20187;-50
2023/03/28 12:38:39;;;;;;;3.90;1.27;;;12.90;99.90;;;;;;5076476;28;20168;-48
2023/03/28 12:41:06;;;;;;;5.03;1.63;;;12.90;99.90;;;;;;5076276;28;20732;-49
2023/03/28 12:43:44;;;;;;;4.30;1.47;;;12.90;99.90;;;;;;5075673;28;20233;-47
2023/03/28 12:46:13;;;;;;;2.20;0.97;;;12.80;99.90;;;;;;5076331;28;20164;-46
2023/03/28 12:48:53;;;;;;;3.30;1.83;;;12.80;99.90;;;;;;5076162;28;20565;-47
2023/03/28 12:51:40;;;;;;;2.13;1.37;;;12.80;99.90;;;;;;5076034;28;20616;-49
2023/03/28 12:54:25;;;;;;;3.93;1.60;;;12.80;99.90;;;;;;5076187;28;20167;-48
2023/03/28 12:57:11;;;;;;;4.23;1.60;;;12.70;99.90;;;;;;5075332;28;20192;-46
2023/03/28 12:59:40;;;;;;;3.70;1.33;;;12.80;99.90;;;;;;5076041;28;20503;-46
2023/03/28 13:02:26;;;;;;;4.10;1.27;;;12.90;99.90;;;;;;5075671;28;20227;-47
2023/03/28 13:05:29;;;;;;;3.87;1.47;;;12.90;99.90;;;;;;5075977;28;20159;-48
2023/03/28 13:08:04;;;;;;;2.27;1.10;;;13.00;99.90;;;;;;5075532;28;20195;-48
2023/03/28 13:11:02;;;;;;;4.57;1.40;;;13.20;99.90;;;;;;5075627;28;20156;-47
2023/03/28 13:13:46;;;;;;;3.37;1.37;;;13.40;99.90;;;;;;5076229;28;20164;-47
2023/03/28 13:16:32;;;;;;;2.60;1.50;;;13.50;99.90;;;;;;5075826;28;20182;-49
2023/03/28 13:19:09;;;;;;;5.47;1.20;;;13.60;99.90;;;;;;5075635;28;20191;-48
2023/03/28 13:21:48;;;;;;;2.47;1.23;;;13.70;99.90;;;;;;5075269;28;20670;-47